createdAt,value
2019-02-10T00:02:01.686Z,118.67
2019-02-10T00:04:31.145Z,132.17
2019-02-10T00:07:00.518Z,131.90
2019-02-10T00:09:29.935Z,129.87
2019-02-10T00:11:59.292Z,137.90
2019-02-10T00:14:28.722Z,132.87
2019-02-10T00:16:58.133Z,137.03
2019-02-10T00:19:27.491Z,137.93
2019-02-10T00:21:56.821Z,153.63
2019-02-10T00:24:26.223Z,155.67
2019-02-10T00:26:55.684Z,166.83
2019-02-10T00:29:25.047Z,149.73
2019-02-10T00:31:54.523Z,155.40
2019-02-10T00:34:23.935Z,186.20
2019-02-10T00:36:53.414Z,178.70
2019-02-10T00:39:22.834Z,173.80
2019-02-10T00:41:52.223Z,183.00
2019-02-10T00:44:21.690Z,180.60
2019-02-10T00:46:50.995Z,162.80
2019-02-10T00:49:20.380Z,188.07
2019-02-10T00:51:49.775Z,167.00
2019-02-10T00:54:19.177Z,158.50
2019-02-10T00:56:48.580Z,156.83
2019-02-10T00:59:18.026Z,142.23
2019-02-10T01:01:47.506Z,144.53
2019-02-10T01:04:16.878Z,133.03
2019-02-10T01:06:46.265Z,151.13
2019-02-10T01:09:15.855Z,132.43
2019-02-10T01:11:45.220Z,132.10
2019-02-10T01:14:14.604Z,137.33
2019-02-10T01:16:43.975Z,151.25
2019-02-10T01:19:13.547Z,144.77
2019-02-10T01:21:44.619Z,143.57
2019-02-10T01:24:13.983Z,112.13
2019-02-10T01:26:43.537Z,110.57
2019-02-10T01:29:12.926Z,122.47
2019-02-10T01:31:42.329Z,151.37
2019-02-10T01:34:11.742Z,125.13
2019-02-10T01:36:49.176Z,127.00
2019-02-10T01:39:17.788Z,108.17
2019-02-10T01:41:47.231Z,136.57
2019-02-10T01:44:16.564Z,116.67
2019-02-10T01:46:45.963Z,129.40
2019-02-10T01:49:15.403Z,128.97
2019-02-10T01:51:44.807Z,130.63
2019-02-10T01:54:14.210Z,124.47
2019-02-10T01:56:43.622Z,131.03
2019-02-10T01:59:13.144Z,116.67
2019-02-10T02:01:42.500Z,118.73
2019-02-10T02:04:11.968Z,116.08
2019-02-10T02:06:41.373Z,119.95
2019-02-10T02:09:12.851Z,135.10
2019-02-10T02:11:42.371Z,184.95
2019-02-10T02:14:11.794Z,194.67
2019-02-10T02:16:41.133Z,186.80
2019-02-10T02:19:10.597Z,166.10
2019-02-10T02:21:40.043Z,157.37
2019-02-10T02:24:09.450Z,125.58
2019-02-10T02:26:38.904Z,130.65
2019-02-10T02:29:08.348Z,118.47
2019-02-10T02:31:37.751Z,100.18
2019-02-10T02:34:07.152Z,90.17
2019-02-10T02:36:42.374Z,97.30
2019-02-10T02:39:11.860Z,92.22
2019-02-10T02:41:41.194Z,93.75
2019-02-10T02:44:10.668Z,85.55
2019-02-10T02:46:40.100Z,83.80
2019-02-10T02:49:09.455Z,80.12
2019-02-10T02:51:38.925Z,85.47
2019-02-10T02:54:08.659Z,73.05
2019-02-10T02:56:38.086Z,69.03
2019-02-10T02:59:07.426Z,75.20
2019-02-10T03:01:36.795Z,68.17
2019-02-10T03:04:06.173Z,80.67
2019-02-10T03:06:47.961Z,76.87
2019-02-10T03:09:17.519Z,89.77
2019-02-10T03:11:47.126Z,91.37
2019-02-10T03:14:16.575Z,88.95
2019-02-10T03:16:45.997Z,99.47
2019-02-10T03:19:15.463Z,84.60
2019-02-10T03:21:44.963Z,90.10
2019-02-10T03:24:14.462Z,83.80
2019-02-10T03:26:43.830Z,85.28
2019-02-10T03:29:13.205Z,78.72
2019-02-10T03:31:42.653Z,85.00
2019-02-10T03:34:12.055Z,87.65
2019-02-10T03:36:41.447Z,90.97
2019-02-10T03:39:10.830Z,84.35
2019-02-10T03:41:40.289Z,85.00
2019-02-10T03:44:09.645Z,88.82
2019-02-10T03:46:39.028Z,99.03
2019-02-10T03:49:08.467Z,85.32
2019-02-10T03:51:37.798Z,87.05
2019-02-10T03:54:07.287Z,90.80
2019-02-10T03:56:36.591Z,87.45
2019-02-10T03:59:05.996Z,87.42
2019-02-10T04:01:35.364Z,99.87
2019-02-10T04:04:04.744Z,92.88
2019-02-10T04:06:34.162Z,90.72
2019-02-10T04:09:04.865Z,80.85
2019-02-10T04:11:34.283Z,90.53
2019-02-10T04:14:03.729Z,88.72
2019-02-10T04:16:33.079Z,86.65
2019-02-10T04:19:02.464Z,89.58
2019-02-10T04:21:31.883Z,84.07
2019-02-10T04:24:01.480Z,76.25
2019-02-10T04:26:30.846Z,91.15
2019-02-10T04:29:00.266Z,92.92
2019-02-10T04:31:29.692Z,86.40
2019-02-10T04:33:59.038Z,81.65
2019-02-10T04:36:28.436Z,95.87
2019-02-10T04:38:57.869Z,90.57
2019-02-10T04:41:27.226Z,94.00
2019-02-10T04:43:56.625Z,88.97
2019-02-10T04:46:26.047Z,94.42
2019-02-10T04:48:55.399Z,96.22
2019-02-10T04:51:24.741Z,85.47
2019-02-10T04:53:54.089Z,88.30
2019-02-10T04:56:23.459Z,72.10
2019-02-10T04:58:52.869Z,66.80
2019-02-10T05:01:22.262Z,65.30
2019-02-10T05:03:52.751Z,61.92
2019-02-10T05:06:22.172Z,62.75
2019-02-10T05:08:51.584Z,62.48
2019-02-10T05:11:20.927Z,64.42
2019-02-10T05:13:50.333Z,62.53
2019-02-10T05:16:19.733Z,63.80
2019-02-10T05:18:49.070Z,62.83
2019-02-10T05:21:18.436Z,72.37
2019-02-10T05:23:47.826Z,74.97
2019-02-10T05:26:17.196Z,71.67
2019-02-10T05:28:46.554Z,70.65
2019-02-10T05:31:15.967Z,80.35
2019-02-10T05:33:45.378Z,74.92
2019-02-10T05:36:14.736Z,74.65
2019-02-10T05:38:44.147Z,71.10
2019-02-10T05:41:13.490Z,73.72
2019-02-10T05:43:42.870Z,76.30
2019-02-10T05:46:12.322Z,67.17
2019-02-10T05:48:41.717Z,72.78
2019-02-10T05:51:11.166Z,66.95
2019-02-10T05:53:40.592Z,68.97
2019-02-10T05:56:10.085Z,65.83
2019-02-10T05:58:39.447Z,68.00
2019-02-10T06:01:44.677Z,69.37
2019-02-10T06:04:14.184Z,71.53
2019-02-10T06:06:43.555Z,67.07
2019-02-10T06:09:13.010Z,67.97
2019-02-10T06:11:42.423Z,65.03
2019-02-10T06:14:11.799Z,91.57
2019-02-10T06:16:41.236Z,93.67
2019-02-10T06:19:10.618Z,82.77
2019-02-10T06:21:40.141Z,78.07
2019-02-10T06:24:09.587Z,80.63
2019-02-10T06:26:38.988Z,93.40
2019-02-10T06:29:08.488Z,90.33
2019-02-10T06:31:37.819Z,83.30
2019-02-10T06:34:07.274Z,82.50
2019-02-10T06:36:36.614Z,80.63
2019-02-10T06:39:07.030Z,79.30
2019-02-10T06:41:36.399Z,85.90
2019-02-10T06:44:05.735Z,101.37
2019-02-10T06:46:35.163Z,81.30
2019-02-10T06:49:04.525Z,83.17
2019-02-10T06:51:33.949Z,81.50
2019-02-10T06:54:03.343Z,73.40
2019-02-10T06:56:33.105Z,78.93
2019-02-10T06:59:02.484Z,82.70
2019-02-10T07:01:45.359Z,77.97
2019-02-10T07:04:22.343Z,78.03
2019-02-10T07:06:51.779Z,78.40
2019-02-10T07:09:22.830Z,89.67
2019-02-10T07:11:52.285Z,88.10
2019-02-10T07:14:25.271Z,92.10
2019-02-10T07:17:15.884Z,96.63
2019-02-10T07:20:31.047Z,95.53
2019-02-10T07:23:35.570Z,94.53
2019-02-10T07:26:21.948Z,103.97
2019-02-10T07:29:24.782Z,110.07
2019-02-10T07:32:20.172Z,121.53
2019-02-10T07:35:45.735Z,126.40
2019-02-10T07:38:40.814Z,113.13
2019-02-10T07:42:12.224Z,115.37
2019-02-10T07:45:18.190Z,133.47
2019-02-10T07:48:34.227Z,143.33
2019-02-10T07:51:46.270Z,112.07
2019-02-10T07:55:05.649Z,134.03
2019-02-10T07:58:24.769Z,124.00
2019-02-10T08:01:29.270Z,118.87
2019-02-10T08:04:32.820Z,100.53
2019-02-10T08:07:35.784Z,89.40
2019-02-10T08:10:34.704Z,81.03
2019-02-10T08:13:19.197Z,79.67
2019-02-10T08:16:32.712Z,80.23
2019-02-10T08:19:33.094Z,83.57
2019-02-10T08:22:40.529Z,75.70
2019-02-10T08:26:02.856Z,81.17
2019-02-10T08:29:06.655Z,77.33
2019-02-10T08:32:42.624Z,68.43
2019-02-10T08:35:36.193Z,80.13
2019-02-10T08:38:30.047Z,72.93
2019-02-10T08:41:40.359Z,58.87
2019-02-10T08:44:49.205Z,57.20
2019-02-10T08:47:41.159Z,54.97
2019-02-10T08:50:59.215Z,50.93
2019-02-10T08:53:38.005Z,50.73
2019-02-10T08:56:07.431Z,50.20
2019-02-10T08:58:36.805Z,53.47
2019-02-10T09:01:06.209Z,49.13
2019-02-10T09:03:35.714Z,52.63
2019-02-10T09:06:05.062Z,60.93
2019-02-10T09:08:34.465Z,56.70
2019-02-10T09:11:03.960Z,61.63
2019-02-10T09:13:33.309Z,57.50
2019-02-10T09:16:02.786Z,57.70
2019-02-10T09:18:32.536Z,52.93
2019-02-10T09:21:02.001Z,56.80
2019-02-10T09:23:31.439Z,56.20
2019-02-10T09:26:01.162Z,59.57
2019-02-10T09:28:30.600Z,58.00
2019-02-10T09:30:59.956Z,60.87
2019-02-10T09:33:29.422Z,60.50
2019-02-10T09:35:58.896Z,56.83
2019-02-10T09:38:28.421Z,65.83
2019-02-10T09:40:57.975Z,70.13
2019-02-10T09:43:27.315Z,61.00
2019-02-10T09:45:57.155Z,56.47
2019-02-10T09:48:26.872Z,64.10
2019-02-10T09:50:56.243Z,57.00
2019-02-10T09:53:25.635Z,61.43
2019-02-10T09:55:55.007Z,63.23
2019-02-10T09:58:24.342Z,59.63
2019-02-10T10:00:53.715Z,61.23
2019-02-10T10:03:23.103Z,52.50
2019-02-10T10:05:52.547Z,62.67
2019-02-10T10:08:21.956Z,56.80
2019-02-10T10:10:51.367Z,60.30
2019-02-10T10:13:20.795Z,53.33
2019-02-10T10:15:50.237Z,50.83
2019-02-10T10:18:19.755Z,52.80
2019-02-10T10:20:49.451Z,57.20
2019-02-10T10:23:18.870Z,54.83
2019-02-10T10:25:49.141Z,51.37
2019-02-10T10:28:18.462Z,49.83
2019-02-10T10:30:47.897Z,46.47
2019-02-10T10:33:18.330Z,45.57
2019-02-10T10:35:47.722Z,46.80
2019-02-10T10:38:17.155Z,46.73
2019-02-10T10:40:46.667Z,44.17
2019-02-10T10:43:15.990Z,39.17
2019-02-10T10:45:45.370Z,45.20
2019-02-10T10:48:14.749Z,46.70
2019-02-10T10:50:44.063Z,53.20
2019-02-10T10:53:13.459Z,35.80
2019-02-10T10:55:43.765Z,22.53
2019-02-10T10:58:13.115Z,27.03
2019-02-10T11:00:42.922Z,21.93
2019-02-10T11:03:12.291Z,22.50
2019-02-10T11:05:42.253Z,17.57
2019-02-10T11:08:11.654Z,13.83
2019-02-10T11:10:41.110Z,14.60
2019-02-10T11:13:10.514Z,11.07
2019-02-10T11:15:39.930Z,12.60
2019-02-10T11:18:09.250Z,11.90
2019-02-10T11:20:39.003Z,15.47
2019-02-10T11:23:08.407Z,10.33
2019-02-10T11:25:37.798Z,11.00
2019-02-10T11:28:07.276Z,11.00
2019-02-10T11:30:36.623Z,8.73
2019-02-10T11:33:06.111Z,10.03
2019-02-10T11:35:35.518Z,9.60
2019-02-10T11:38:04.925Z,10.73
2019-02-10T11:40:34.359Z,8.93
2019-02-10T11:43:03.703Z,9.57
2019-02-10T11:45:33.169Z,8.47
2019-02-10T11:48:02.575Z,10.07
2019-02-10T11:50:31.964Z,8.77
2019-02-10T11:53:01.387Z,9.07
2019-02-10T11:55:30.834Z,6.50
2019-02-10T11:58:01.152Z,8.97
2019-02-10T12:00:30.523Z,10.50
2019-02-10T12:02:59.913Z,9.13
2019-02-10T12:05:29.315Z,14.73
2019-02-10T12:07:58.647Z,9.87
2019-02-10T12:10:28.097Z,13.40
2019-02-10T12:12:57.431Z,9.03
2019-02-10T12:15:27.282Z,7.20
2019-02-10T12:17:57.035Z,6.83
2019-02-10T12:20:26.442Z,5.80
2019-02-10T12:22:55.821Z,6.80
2019-02-10T12:25:25.163Z,7.43
2019-02-10T12:27:54.545Z,5.87
2019-02-10T12:30:23.917Z,6.30
2019-02-10T12:32:53.365Z,10.53
2019-02-10T12:35:22.773Z,8.27
2019-02-10T12:37:52.176Z,6.77
2019-02-10T12:40:21.552Z,10.93
2019-02-10T12:42:50.898Z,6.60
2019-02-10T12:45:20.269Z,6.50
2019-02-10T12:47:49.682Z,9.00
2019-02-10T12:50:19.095Z,7.13
2019-02-10T12:52:48.471Z,5.93
2019-02-10T12:55:17.857Z,7.33
2019-02-10T12:57:47.491Z,8.10
2019-02-10T13:00:17.336Z,7.53
2019-02-10T13:02:47.471Z,6.60
2019-02-10T13:05:16.853Z,10.30
2019-02-10T13:07:46.702Z,7.70
2019-02-10T13:10:18.206Z,6.73
2019-02-10T13:12:47.345Z,9.17
2019-02-10T13:15:16.704Z,5.70
2019-02-10T13:17:46.186Z,7.13
2019-02-10T13:20:16.188Z,10.77
2019-02-10T13:22:45.574Z,10.40
2019-02-10T13:25:15.085Z,8.00
2019-02-10T13:27:44.383Z,6.80
2019-02-10T13:30:14.087Z,6.27
2019-02-10T13:32:43.435Z,6.93
2019-02-10T13:35:12.945Z,7.57
2019-02-10T13:37:42.296Z,7.73
2019-02-10T13:40:17.163Z,6.93
2019-02-10T13:42:46.661Z,8.13
2019-02-10T13:45:16.019Z,7.20
2019-02-10T13:47:45.430Z,9.63
2019-02-10T13:50:15.519Z,11.87
2019-02-10T13:52:44.885Z,9.00
2019-02-10T13:55:14.320Z,8.73
2019-02-10T13:57:43.766Z,13.37
2019-02-10T14:00:15.518Z,10.80
2019-02-10T14:02:44.973Z,13.30
2019-02-10T14:05:14.359Z,11.73
2019-02-10T14:07:45.677Z,8.13
2019-02-10T14:10:15.168Z,8.40
2019-02-10T14:12:44.652Z,14.80
2019-02-10T14:15:14.475Z,18.50
2019-02-10T14:17:44.153Z,17.03
2019-02-10T14:20:15.583Z,15.07
2019-02-10T14:22:44.936Z,19.17
2019-02-10T14:25:14.394Z,11.13
2019-02-10T14:27:44.330Z,16.27
2019-02-10T14:30:16.982Z,11.93
2019-02-10T14:32:46.295Z,13.23
2019-02-10T14:35:15.694Z,21.40
2019-02-10T14:37:45.165Z,12.90
2019-02-10T14:40:14.712Z,11.50
2019-02-10T14:42:44.118Z,11.10
2019-02-10T14:45:13.658Z,16.93
2019-02-10T14:47:43.060Z,12.60
2019-02-10T14:50:13.955Z,9.97
2019-02-10T14:52:43.302Z,10.23
2019-02-10T14:55:13.021Z,10.23
2019-02-10T14:57:42.432Z,11.43
2019-02-10T15:00:13.000Z,8.93
2019-02-10T15:02:42.467Z,11.00
2019-02-10T15:05:12.303Z,11.60
2019-02-10T15:07:41.695Z,8.17
2019-02-10T15:10:12.328Z,13.20
2019-02-10T15:12:41.699Z,12.83
2019-02-10T15:15:11.483Z,14.87
2019-02-10T15:17:40.936Z,9.27
2019-02-10T15:20:10.428Z,22.70
2019-02-10T15:22:40.200Z,12.00
2019-02-10T15:25:09.775Z,15.23
2019-02-10T15:27:39.209Z,13.10
2019-02-10T15:30:10.075Z,10.80
2019-02-10T15:32:39.502Z,12.67
2019-02-10T15:35:09.073Z,15.80
2019-02-10T15:37:38.442Z,13.73
2019-02-10T15:40:08.268Z,23.30
2019-02-10T15:42:37.706Z,33.40
2019-02-10T15:45:07.991Z,41.00
2019-02-10T15:47:37.416Z,56.37
2019-02-10T15:50:07.223Z,84.50
2019-02-10T15:52:36.602Z,58.77
2019-02-10T15:55:06.475Z,67.70
2019-02-10T15:57:35.913Z,128.63
2019-02-10T16:00:07.122Z,85.80
2019-02-10T16:02:36.689Z,88.53
2019-02-10T16:05:06.518Z,75.87
2019-02-10T16:07:36.012Z,113.27
2019-02-10T16:10:06.217Z,83.27
2019-02-10T16:12:35.651Z,81.80
2019-02-10T16:15:05.242Z,58.17
2019-02-10T16:17:34.604Z,37.37
2019-02-10T16:20:04.165Z,40.87
2019-02-10T16:22:33.594Z,41.07
2019-02-10T16:25:03.024Z,38.30
2019-02-10T16:27:32.477Z,40.37
2019-02-10T16:30:01.852Z,40.57
2019-02-10T16:32:31.261Z,38.63
2019-02-10T16:35:00.646Z,37.10
2019-02-10T16:37:30.024Z,35.77
2019-02-10T16:39:59.369Z,45.90
2019-02-10T16:42:28.744Z,41.90
2019-02-10T16:44:58.147Z,35.50
2019-02-10T16:47:27.586Z,46.83
2019-02-10T16:49:56.978Z,49.83
2019-02-10T16:52:26.426Z,52.70
2019-02-10T16:54:57.628Z,45.07
2019-02-10T16:57:27.095Z,50.33
2019-02-10T17:00:00.806Z,62.03
2019-02-10T17:02:30.207Z,79.13
2019-02-10T17:04:59.625Z,94.53
2019-02-10T17:07:29.050Z,73.23
2019-02-10T17:10:01.612Z,81.00
2019-02-10T17:12:33.002Z,79.43
2019-02-10T17:15:02.191Z,67.47
2019-02-10T17:17:31.622Z,65.47
2019-02-10T17:20:01.079Z,63.33
2019-02-10T17:22:31.358Z,70.97
2019-02-10T17:25:01.039Z,67.50
2019-02-10T17:27:30.434Z,57.37
2019-02-10T17:29:59.913Z,41.07
2019-02-10T17:32:29.273Z,42.03
2019-02-10T17:35:00.670Z,51.37
2019-02-10T17:37:30.110Z,46.07
2019-02-10T17:39:59.821Z,40.70
2019-02-10T17:42:31.012Z,54.90
2019-02-10T17:45:01.725Z,59.53
2019-02-10T17:47:31.425Z,60.17
2019-02-10T17:50:00.809Z,44.10
2019-02-10T17:52:32.072Z,46.97
2019-02-10T17:55:01.337Z,58.20
2019-02-10T17:57:33.491Z,64.33
2019-02-10T18:00:06.485Z,81.90
2019-02-10T18:02:36.115Z,96.87
2019-02-10T18:05:05.612Z,155.53
2019-02-10T18:07:38.384Z,174.97
2019-02-10T18:10:08.698Z,168.97
2019-02-10T18:12:38.144Z,183.40
2019-02-10T18:15:25.743Z,141.53
2019-02-10T18:18:29.368Z,140.33
2019-02-10T18:21:20.605Z,110.00
2019-02-10T18:24:07.613Z,109.10
2019-02-10T18:26:57.555Z,99.07
2019-02-10T18:29:48.957Z,104.47
2019-02-10T18:32:43.365Z,110.03
2019-02-10T18:35:31.226Z,119.60
2019-02-10T18:38:11.490Z,131.50
2019-02-10T18:40:59.837Z,135.60
2019-02-10T18:43:49.521Z,138.83
2019-02-10T18:46:26.143Z,137.30
2019-02-10T18:49:13.590Z,157.87
2019-02-10T18:52:00.824Z,210.23
2019-02-10T18:54:55.230Z,175.77
2019-02-10T18:57:34.667Z,158.90
2019-02-10T19:00:32.793Z,122.20
2019-02-10T19:03:24.233Z,148.17
2019-02-10T19:06:12.523Z,155.37
2019-02-10T19:09:03.915Z,163.10
2019-02-10T19:11:49.498Z,157.80
2019-02-10T19:14:44.272Z,165.50
2019-02-10T19:17:20.144Z,202.90
2019-02-10T19:20:09.229Z,214.70
2019-02-10T19:22:56.536Z,256.87
2019-02-10T19:25:34.600Z,170.57
2019-02-10T19:28:21.617Z,100.63
2019-02-10T19:31:05.230Z,88.50
2019-02-10T19:33:45.113Z,111.13
2019-02-10T19:36:39.541Z,82.03
2019-02-10T19:39:26.855Z,69.73
2019-02-10T19:42:14.198Z,108.03
2019-02-10T19:45:11.408Z,121.50
2019-02-10T19:48:17.945Z,114.33
2019-02-10T19:51:12.960Z,96.37
2019-02-10T19:53:53.394Z,121.50
2019-02-10T19:56:48.312Z,121.20
2019-02-10T19:59:45.481Z,140.23
2019-02-10T20:02:36.577Z,142.07
2019-02-10T20:05:31.489Z,159.50
2019-02-10T20:08:32.262Z,136.83
2019-02-10T20:11:17.898Z,89.13
2019-02-10T20:13:56.895Z,135.67
2019-02-10T20:17:03.743Z,143.30
2019-02-10T20:19:38.999Z,117.30
2019-02-10T20:22:16.293Z,112.17
2019-02-10T20:25:08.171Z,99.37
2019-02-10T20:28:11.587Z,122.03
2019-02-10T20:31:09.291Z,75.20
2019-02-10T20:33:56.155Z,80.53
2019-02-10T20:36:42.549Z,61.47
2019-02-10T20:39:29.191Z,43.80
2019-02-10T20:42:20.344Z,39.50
2019-02-10T20:45:04.311Z,35.53
2019-02-10T20:47:55.685Z,41.60
2019-02-10T20:50:56.109Z,41.50
2019-02-10T20:53:56.457Z,38.17
2019-02-10T20:56:50.648Z,41.10
2019-02-10T20:59:32.176Z,51.47
2019-02-10T21:02:32.457Z,51.20
2019-02-10T21:05:09.943Z,49.60
2019-02-10T21:07:52.522Z,46.97
2019-02-10T21:10:33.002Z,55.50
2019-02-10T21:13:21.343Z,53.13
2019-02-10T21:16:09.658Z,57.13
2019-02-10T21:18:59.906Z,55.20
2019-02-10T21:21:45.057Z,51.43
2019-02-10T21:24:33.348Z,54.43
2019-02-10T21:27:10.932Z,55.07
2019-02-10T21:30:08.385Z,51.10
2019-02-10T21:32:54.178Z,45.87
2019-02-10T21:35:39.373Z,43.67
2019-02-10T21:38:33.883Z,44.53
2019-02-10T21:41:24.574Z,42.43
2019-02-10T21:44:02.618Z,43.93
2019-02-10T21:47:00.203Z,45.23
2019-02-10T21:49:30.595Z,46.20
2019-02-10T21:52:20.493Z,51.30
2019-02-10T21:54:50.024Z,47.63
2019-02-10T21:57:19.436Z,47.33
2019-02-10T21:59:48.940Z,51.03
2019-02-10T22:02:18.335Z,43.47
2019-02-10T22:04:47.721Z,48.80
2019-02-10T22:07:17.173Z,50.87
2019-02-10T22:09:46.606Z,49.70
2019-02-10T22:12:16.059Z,45.90
2019-02-10T22:14:45.453Z,45.77
2019-02-10T22:17:14.848Z,47.77
2019-02-10T22:19:44.326Z,47.43
2019-02-10T22:22:13.811Z,45.83
2019-02-10T22:24:43.259Z,41.90
2019-02-10T22:27:12.618Z,51.30
2019-02-10T22:29:41.971Z,48.73
2019-02-10T22:32:11.399Z,50.20
2019-02-10T22:34:40.761Z,49.63
2019-02-10T22:37:10.152Z,49.30
2019-02-10T22:39:39.560Z,50.40
2019-02-10T22:42:09.006Z,53.73
2019-02-10T22:44:38.457Z,53.33
2019-02-10T22:47:07.891Z,53.53
2019-02-10T22:49:37.751Z,53.20
2019-02-10T22:52:07.130Z,58.37
2019-02-10T22:54:36.629Z,48.57
2019-02-10T22:57:06.097Z,64.57
2019-02-10T22:59:35.453Z,57.67
2019-02-10T23:02:04.938Z,51.77
2019-02-10T23:04:34.352Z,57.20
2019-02-10T23:07:03.831Z,54.60
2019-02-10T23:09:33.304Z,52.20
2019-02-10T23:12:02.757Z,51.60
2019-02-10T23:14:32.220Z,54.83
2019-02-10T23:17:01.586Z,49.63
2019-02-10T23:19:30.983Z,51.37
2019-02-10T23:22:00.364Z,50.67
2019-02-10T23:24:29.786Z,49.20
2019-02-10T23:26:59.196Z,50.47
2019-02-10T23:29:28.580Z,48.17
2019-02-10T23:32:00.497Z,46.83
2019-02-10T23:34:32.690Z,47.60
2019-02-10T23:37:02.202Z,49.23
2019-02-10T23:39:31.621Z,46.87
2019-02-10T23:42:01.060Z,49.27
2019-02-10T23:44:30.562Z,44.60
2019-02-10T23:46:59.945Z,46.33
2019-02-10T23:49:29.396Z,47.27
2019-02-10T23:51:58.802Z,43.70
2019-02-10T23:54:28.211Z,47.73
2019-02-10T23:56:58.181Z,44.27
2019-02-10T23:59:27.539Z,45.47
